Time;durP1;ratioP1;P1;durP2;ratioP2;P2;SDS_P1;SDS_P2;PMS_P1;PMS_P2;Temp;Humidity;BMP_temperature;BMP_pressure;BME280_temperature;BME280_humidity;BME280_pressure;Samples;Min_cycle;Max_cycle;Signal;HPM_P1;HPM_P2
2022/07/17 00:01:22;;;;;;;1.02;0.63;;;;;;;29.85;39.64;100840.03;4987307;28;20080;-75
2022/07/17 00:03:48;;;;;;;0.88;0.50;;;;;;;29.86;39.74;100843.53;4986759;28;20034;-75
2022/07/17 00:06:14;;;;;;;1.50;0.80;;;;;;;29.85;39.48;100858.84;4986975;28;20042;-75
2022/07/17 00:08:39;;;;;;;4.53;1.05;;;;;;;29.86;40.04;100862.31;4986878;28;20022;-75
2022/07/17 00:11:05;;;;;;;1.48;0.85;;;;;;;29.84;39.66;100857.22;4987028;28;20038;-75
2022/07/17 00:13:30;;;;;;;1.50;0.50;;;;;;;29.85;39.94;100849.97;4987071;28;20030;-75
2022/07/17 00:15:55;;;;;;;2.45;0.50;;;;;;;29.84;39.87;100859.91;4986434;28;20395;-75
2022/07/17 00:18:21;;;;;;;2.78;0.70;;;;;;;29.84;39.46;100851.84;4987693;28;20549;-75
2022/07/17 00:20:47;;;;;;;2.30;0.88;;;;;;;29.84;39.74;100864.47;4986948;28;20034;-75
2022/07/17 00:23:12;;;;;;;1.20;0.63;;;;;;;29.83;39.81;100866.34;4990148;28;20081;-75
2022/07/17 00:25:38;;;;;;;1.85;0.70;;;;;;;29.84;39.41;100878.72;4990707;28;20033;-75
2022/07/17 00:28:04;;;;;;;0.93;0.50;;;;;;;29.85;40.00;100885.69;4990280;28;20081;-75
2022/07/17 00:30:30;;;;;;;2.03;0.80;;;;;;;29.84;39.75;100892.13;4971242;28;20449;-75
2022/07/17 00:32:55;;;;;;;1.83;0.60;;;;;;;29.82;39.16;100885.41;4990916;28;20046;-75
2022/07/17 00:35:21;;;;;;;1.20;0.60;;;;;;;29.79;39.09;100894.78;4991560;28;20045;-75
2022/07/17 00:37:48;;;;;;;1.85;0.70;;;;;;;29.80;38.88;100885.66;4988917;28;20030;-74
2022/07/17 00:40:18;;;;;;;1.80;0.85;;;;;;;29.79;39.07;100883.25;4990061;28;20085;-75
2022/07/17 00:42:44;;;;;;;1.80;0.90;;;;;;;29.78;39.04;100884.31;4990979;28;20026;-75
2022/07/17 00:45:11;;;;;;;3.65;0.73;;;;;;;29.77;39.31;100885.41;4991085;28;20037;-75
2022/07/17 00:47:57;;;;;;;2.65;0.77;;;;;;;29.72;39.44;100870.09;4989925;28;20156;-74
2022/07/17 00:50:27;;;;;;;4.97;0.90;;;;;;;29.67;39.71;100873.56;4990494;28;20030;-75
2022/07/17 00:52:52;;;;;;;2.78;1.00;;;;;;;29.63;39.44;100882.38;4990011;28;20049;-75
2022/07/17 00:55:19;;;;;;;2.67;0.88;;;;;;;29.62;39.54;100872.72;4989860;28;20026;-76
2022/07/17 00:57:47;;;;;;;2.58;0.60;;;;;;;29.65;39.68;100872.19;4988644;28;20038;-76
2022/07/17 01:00:15;;;;;;;2.95;0.77;;;;;;;29.65;39.49;100869.50;4989621;28;20493;-75
2022/07/17 01:02:45;;;;;;;2.17;0.80;;;;;;;29.66;39.85;100876.50;4989646;28;20044;-75
2022/07/17 01:05:11;;;;;;;1.48;1.05;;;;;;;29.64;40.06;100874.06;4989934;28;20496;-75
2022/07/17 01:07:36;;;;;;;3.00;1.02;;;;;;;29.63;39.56;100867.09;4989524;28;20034;-75
2022/07/17 01:10:02;;;;;;;1.40;0.60;;;;;;;29.64;39.70;100875.94;4990574;28;20046;-75
2022/07/17 01:12:28;;;;;;;3.17;1.00;;;;;;;29.64;39.65;100870.56;4989521;28;20046;-74
2022/07/17 01:14:55;;;;;;;2.55;0.90;;;;;;;29.66;39.91;100871.94;4990167;28;20034;-75
2022/07/17 01:17:20;;;;;;;2.08;0.70;;;;;;;29.67;39.77;100867.38;4988183;28;20042;-75
2022/07/17 01:19:46;;;;;;;3.08;1.10;;;;;;;29.67;40.03;100867.38;4990130;28;20033;-75
2022/07/17 01:22:11;;;;;;;1.33;0.70;;;;;;;29.68;39.75;100869.78;4990092;28;20050;-74
2022/07/17 01:24:41;;;;;;;1.23;0.70;;;;;;;29.69;39.83;100871.41;4989462;28;20100;-75
2022/07/17 01:27:06;;;;;;;1.05;0.50;;;;;;;29.71;40.05;100873.84;4988466;28;20069;-74
2022/07/17 01:29:32;;;;;;;1.38;0.65;;;;;;;29.71;40.00;100881.88;4988765;28;20570;-74
2022/07/17 01:31:58;;;;;;;2.97;0.73;;;;;;;29.71;39.75;100884.56;4988855;28;20542;-75
2022/07/17 01:34:23;;;;;;;1.70;0.70;;;;;;;29.71;39.61;100888.06;4988351;28;20451;-75
2022/07/17 01:36:48;;;;;;;1.20;0.82;;;;;;;29.72;39.55;100888.88;4989791;28;20381;-74
2022/07/17 01:39:14;;;;;;;1.40;1.10;;;;;;;29.73;39.45;100895.88;4989819;28;20027;-74
2022/07/17 01:41:39;;;;;;;2.53;0.93;;;;;;;29.72;39.35;100886.19;4988875;28;20129;-75
2022/07/17 01:44:06;;;;;;;2.70;0.80;;;;;;;29.73;39.48;100893.19;4988792;28;20047;-75
2022/07/17 01:46:32;;;;;;;2.38;0.82;;;;;;;29.72;39.82;100886.19;4990253;28;20030;-74
2022/07/17 01:48:57;;;;;;;1.60;0.75;;;;;;;29.72;39.41;100899.63;4987131;28;20524;-75
2022/07/17 01:51:22;;;;;;;1.20;0.70;;;;;;;29.69;39.40;100892.09;4988676;28;20390;-74
2022/07/17 01:53:48;;;;;;;3.13;0.70;;;;;;;29.68;39.09;100887.78;4988517;28;20034;-74
2022/07/17 01:56:13;;;;;;;1.45;0.60;;;;;;;29.66;39.02;100887.22;4988312;28;20114;-74
2022/07/17 01:58:39;;;;;;;1.42;0.70;;;;;;;29.64;38.92;100890.19;4989579;28;20030;-74
2022/07/17 02:01:04;;;;;;;1.10;0.70;;;;;;;29.63;38.32;100899.31;4989413;28;20030;-74
2022/07/17 02:03:30;;;;;;;3.17;0.90;;;;;;;29.62;38.77;100897.69;4989344;28;20537;-74
2022/07/17 02:05:55;;;;;;;2.13;0.80;;;;;;;29.62;38.52;100899.56;4988755;28;20038;-75
2022/07/17 02:08:21;;;;;;;0.98;0.50;;;;;;;29.60;38.21;100899.00;4988265;28;20196;-75
2022/07/17 02:10:47;;;;;;;1.73;0.60;;;;;;;29.59;38.04;100908.94;4988829;28;20026;-75
2022/07/17 02:13:12;;;;;;;3.45;0.80;;;;;;;29.59;38.06;100903.56;4989494;28;20105;-75
2022/07/17 02:15:37;;;;;;;1.73;0.60;;;;;;;29.58;38.19;100911.88;4987458;28;20061;-75
2022/07/17 02:18:03;;;;;;;1.08;0.65;;;;;;;29.58;38.46;100915.38;4987592;28;20027;-75
2022/07/17 02:20:29;;;;;;;1.70;0.50;;;;;;;29.57;38.24;100915.63;4987346;28;20035;-75
2022/07/17 02:22:54;;;;;;;0.90;0.47;;;;;;;29.58;38.17;100919.94;4988776;28;20037;-75
2022/07/17 02:25:20;;;;;;;1.42;0.60;;;;;;;29.58;38.15;100926.13;4989508;28;20035;-75
2022/07/17 02:27:45;;;;;;;1.20;0.60;;;;;;;29.59;37.98;100926.94;4981676;28;20053;-74
2022/07/17 02:30:14;;;;;;;2.55;0.60;;;;;;;29.60;38.02;100920.50;4969802;28;20026;-75
2022/07/17 02:32:40;;;;;;;0.82;0.50;;;;;;;29.59;37.83;100919.69;4983353;28;20057;-75
2022/07/17 02:35:08;;;;;;;2.20;0.77;;;;;;;29.60;37.62;100923.16;4989311;28;20060;-74
2022/07/17 02:37:33;;;;;;;2.50;0.50;;;;;;;29.60;37.76;100920.50;4988871;28;20420;-74
2022/07/17 02:39:59;;;;;;;2.33;0.65;;;;;;;29.61;37.49;100922.09;4988749;28;20026;-75
2022/07/17 02:42:27;;;;;;;2.30;0.50;;;;;;;29.60;37.40;100926.66;4987794;28;20513;-75
2022/07/17 02:44:53;;;;;;;2.45;0.40;;;;;;;29.61;37.46;100932.84;4988557;28;20030;-76
2022/07/17 02:47:22;;;;;;;1.05;0.45;;;;;;;29.61;37.35;100935.53;4988621;28;20454;-75
2022/07/17 02:49:48;;;;;;;0.70;0.40;;;;;;;29.61;37.49;100927.47;4985766;28;20430;-75
2022/07/17 02:52:13;;;;;;;0.85;0.50;;;;;;;29.61;37.53;100933.66;4987643;28;20100;-75
2022/07/17 02:54:38;;;;;;;0.90;0.40;;;;;;;29.59;37.30;100925.03;4988257;28;20022;-75
2022/07/17 02:57:04;;;;;;;2.22;0.45;;;;;;;29.61;37.38;100924.78;5327340;22;20076;-73
2022/07/17 02:59:29;;;;;;;1.42;0.68;;;;;;;29.60;37.67;100932.03;5073462;22;20072;-74
2022/07/17 03:01:55;;;;;;;1.00;0.50;;;;;;;29.60;37.70;100925.84;5068004;28;20028;-73
2022/07/17 03:04:20;;;;;;;1.40;0.50;;;;;;;29.60;37.37;100925.84;5067722;28;20386;-74
2022/07/17 03:06:46;;;;;;;0.63;0.43;;;;;;;29.61;37.44;100939.03;5067754;28;20416;-74
2022/07/17 03:09:11;;;;;;;2.00;0.43;;;;;;;29.60;37.15;100937.41;5067586;28;20096;-73
2022/07/17 03:11:37;;;;;;;1.13;0.40;;;;;;;29.60;37.33;100944.66;5067290;28;20024;-72
2022/07/17 03:14:02;;;;;;;1.10;0.50;;;;;;;29.59;37.42;100940.34;5067812;28;20337;-73
2022/07/17 03:16:27;;;;;;;1.10;0.50;;;;;;;29.58;37.39;100933.34;5067336;28;20028;-73
2022/07/17 03:18:53;;;;;;;1.13;0.50;;;;;;;29.59;37.54;100937.66;5067357;28;20028;-72
2022/07/17 03:21:18;;;;;;;0.93;0.50;;;;;;;29.58;37.43;100944.09;5067825;28;20032;-72
2022/07/17 03:23:44;;;;;;;1.88;0.50;;;;;;;29.56;37.62;100939.00;5067257;28;20031;-72
2022/07/17 03:26:09;;;;;;;2.10;0.60;;;;;;;29.58;37.01;100954.84;5067277;28;20098;-73
2022/07/17 03:28:34;;;;;;;2.67;0.60;;;;;;;29.57;37.00;100948.66;5067410;28;20074;-73
2022/07/17 03:31:00;;;;;;;2.25;0.52;;;;;;;29.56;37.29;100947.03;5067428;28;20020;-72
2022/07/17 03:33:25;;;;;;;0.90;0.40;;;;;;;29.56;37.11;100951.59;5067306;28;20477;-72
2022/07/17 03:35:50;;;;;;;1.60;0.70;;;;;;;29.55;37.11;100942.75;5067391;28;20024;-72
2022/07/17 03:38:16;;;;;;;1.98;0.60;;;;;;;29.55;36.67;100944.63;5067174;28;20036;-73
2022/07/17 03:40:41;;;;;;;1.08;0.68;;;;;;;29.53;36.70;100942.19;5066963;28;20024;-73
2022/07/17 03:43:07;;;;;;;0.77;0.35;;;;;;;29.54;36.41;100948.38;5067097;28;20036;-72
2022/07/17 03:45:32;;;;;;;2.47;0.50;;;;;;;29.52;36.69;100947.81;5067417;28;20037;-72
2022/07/17 03:47:58;;;;;;;0.60;0.40;;;;;;;29.51;36.22;100944.31;5067225;28;20051;-73
2022/07/17 03:50:23;;;;;;;2.13;0.50;;;;;;;29.50;36.29;100936.53;5067092;28;20788;-75
2022/07/17 03:52:48;;;;;;;1.25;0.50;;;;;;;29.49;36.38;100942.97;5066965;28;20060;-75
2022/07/17 03:55:14;;;;;;;1.80;0.52;;;;;;;29.50;36.45;100949.94;5066852;28;20116;-75
2022/07/17 03:57:39;;;;;;;1.42;0.52;;;;;;;29.49;36.46;100945.66;5068247;28;20510;-75
2022/07/17 04:00:05;;;;;;;1.40;0.70;;;;;;;29.50;36.15;100956.13;5070935;28;20393;-75
2022/07/17 04:02:31;;;;;;;0.90;0.50;;;;;;;29.50;36.04;100955.31;5070943;28;20498;-75
2022/07/17 04:04:56;;;;;;;1.00;0.50;;;;;;;29.51;35.94;100959.63;5070911;28;20023;-75
2022/07/17 04:07:27;;;;;;;1.58;0.40;;;;;;;29.51;36.28;100954.25;5070699;28;20028;-74
2022/07/17 04:09:57;;;;;;;4.30;0.75;;;;;;;29.52;35.95;100961.25;5070416;28;20064;-75
2022/07/17 04:12:23;;;;;;;0.80;0.50;;;;;;;29.51;36.11;100970.34;5070947;28;20034;-74
2022/07/17 04:14:49;;;;;;;3.50;0.40;;;;;;;29.53;35.95;100970.91;5070874;28;20183;-75
2022/07/17 04:17:15;;;;;;;1.00;0.40;;;;;;;29.53;36.13;100976.28;5070380;28;20036;-75
2022/07/17 04:19:40;;;;;;;1.80;0.40;;;;;;;29.53;35.97;100974.41;5070385;28;20021;-75
2022/07/17 04:22:05;;;;;;;1.13;0.40;;;;;;;29.54;35.82;100970.66;5070571;28;20434;-75
2022/07/17 04:24:31;;;;;;;0.93;0.40;;;;;;;29.55;36.29;100983.00;5070733;28;20533;-75
2022/07/17 04:26:56;;;;;;;0.75;0.40;;;;;;;29.56;35.89;100976.56;5070327;28;20017;-75
2022/07/17 04:29:22;;;;;;;2.55;0.70;;;;;;;29.53;35.56;100979.78;5070379;28;20067;-74
2022/07/17 04:31:47;;;;;;;3.42;0.52;;;;;;;29.23;33.89;100982.19;5070433;28;20079;-76
2022/07/17 04:34:13;;;;;;;3.28;0.50;;;;;;;28.90;34.29;100980.53;5070305;28;20025;-75
2022/07/17 04:36:38;;;;;;;3.35;0.40;;;;;;;28.77;34.29;100987.09;5070485;28;20472;-75
2022/07/17 04:39:03;;;;;;;1.38;0.40;;;;;;;28.65;34.14;100987.25;5070089;28;20039;-75
2022/07/17 04:41:29;;;;;;;1.42;0.55;;;;;;;28.70;33.92;100992.66;5070299;28;20028;-75
2022/07/17 04:43:54;;;;;;;1.05;0.40;;;;;;;28.77;34.43;101002.38;5070229;28;20029;-75
2022/07/17 04:46:19;;;;;;;2.53;0.60;;;;;;;28.80;34.10;100991.97;5070134;28;20093;-74
2022/07/17 04:48:45;;;;;;;2.97;0.40;;;;;;;28.56;33.37;100995.97;5070055;28;20040;-75
2022/07/17 04:51:10;;;;;;;1.25;0.38;;;;;;;28.32;33.25;100995.44;5070074;28;20048;-75
2022/07/17 04:53:37;;;;;;;1.52;0.40;;;;;;;28.18;33.36;100999.50;5069921;28;20090;-75
2022/07/17 04:56:03;;;;;;;3.40;0.75;;;;;;;28.07;34.19;100998.56;5069861;28;20027;-75
2022/07/17 04:58:28;;;;;;;1.15;0.40;;;;;;;28.09;33.55;101005.28;5069556;28;20056;-75
2022/07/17 05:00:54;;;;;;;1.58;0.40;;;;;;;28.22;33.52;101006.03;5069821;28;20067;-74
2022/07/17 05:03:19;;;;;;;2.75;0.50;;;;;;;28.30;33.35;101013.63;5069874;28;20044;-75
2022/07/17 05:05:45;;;;;;;1.60;0.40;;;;;;;28.19;33.76;101011.84;5069704;28;20028;-75
2022/07/17 05:08:10;;;;;;;1.00;0.30;;;;;;;28.00;33.18;101014.78;5069138;28;20071;-75
2022/07/17 05:10:35;;;;;;;2.42;0.40;;;;;;;27.89;33.03;101021.06;5068970;28;20055;-75
2022/07/17 05:13:01;;;;;;;1.25;0.47;;;;;;;27.77;33.46;101027.59;5069459;28;20047;-75
2022/07/17 05:15:26;;;;;;;2.80;0.45;;;;;;;27.68;33.19;101016.47;5069635;28;20031;-75
2022/07/17 05:17:52;;;;;;;1.13;0.30;;;;;;;27.58;33.16;101029.66;5069361;28;20025;-75
2022/07/17 05:20:17;;;;;;;4.07;0.43;;;;;;;27.41;32.80;101033.13;5069400;28;20051;-74
2022/07/17 05:22:42;;;;;;;2.05;0.55;;;;;;;27.34;33.20;101021.78;5069262;28;20085;-75
2022/07/17 05:25:08;;;;;;;1.80;0.40;;;;;;;27.43;33.24;101020.31;5069328;28;20025;-75
2022/07/17 05:27:34;;;;;;;2.58;0.35;;;;;;;27.54;33.12;101025.84;5069393;28;20036;-72
2022/07/17 05:29:59;;;;;;;1.88;0.30;;;;;;;27.61;32.63;101027.34;5069301;28;20063;-74
2022/07/17 05:32:25;;;;;;;1.70;0.38;;;;;;;27.47;32.74;101028.69;5069198;28;20025;-75
2022/07/17 05:34:50;;;;;;;2.20;0.43;;;;;;;27.52;32.94;101030.63;5069108;28;20037;-75
2022/07/17 05:37:15;;;;;;;2.72;0.50;;;;;;;27.43;33.42;101036.38;5069111;28;20028;-74
2022/07/17 05:39:41;;;;;;;1.45;0.40;;;;;;;27.48;33.11;101032.97;5069027;28;20052;-72
2022/07/17 05:42:06;;;;;;;2.65;0.38;;;;;;;27.51;32.84;101032.50;5069270;28;20338;-72
2022/07/17 05:44:32;;;;;;;1.73;0.57;;;;;;;27.50;33.25;101033.53;5069138;28;20413;-72
2022/07/17 05:46:57;;;;;;;2.30;0.30;;;;;;;27.42;33.22;101034.75;5068921;28;20495;-73
2022/07/17 05:49:22;;;;;;;1.83;0.38;;;;;;;27.33;33.33;101038.09;5068913;28;20428;-75
2022/07/17 05:51:48;;;;;;;2.20;0.50;;;;;;;27.31;33.47;101042.88;5068664;28;20070;-75
2022/07/17 05:54:13;;;;;;;1.92;0.50;;;;;;;27.27;33.23;101037.19;5068547;28;20024;-75
2022/07/17 05:56:39;;;;;;;1.75;0.50;;;;;;;27.26;33.42;101038.25;5068836;28;20025;-75
2022/07/17 05:59:04;;;;;;;1.63;0.30;;;;;;;27.34;33.34;101050.41;5068462;28;20055;-74
2022/07/17 06:01:30;;;;;;;3.72;0.30;;;;;;;27.35;33.27;101052.84;5068684;28;20028;-74
2022/07/17 06:03:55;;;;;;;2.90;0.40;;;;;;;27.25;33.48;101055.34;5068477;28;20024;-75
2022/07/17 06:06:21;;;;;;;1.42;0.30;;;;;;;27.16;33.26;101055.97;5068262;28;20056;-75
2022/07/17 06:08:47;;;;;;;3.45;0.40;;;;;;;27.14;33.44;101055.38;5068123;28;20028;-75
2022/07/17 06:11:12;;;;;;;1.63;0.40;;;;;;;27.06;33.74;101053.91;5068185;28;20085;-76
2022/07/17 06:13:38;;;;;;;1.17;0.40;;;;;;;27.05;33.81;101063.78;5068392;28;20419;-76
2022/07/17 06:16:03;;;;;;;1.63;0.38;;;;;;;27.04;33.76;101066.69;5068233;28;20450;-76
2022/07/17 06:18:29;;;;;;;1.92;0.35;;;;;;;27.06;33.53;101062.75;5068068;28;20032;-76
2022/07/17 06:20:54;;;;;;;1.92;0.40;;;;;;;27.06;33.65;101067.28;5067897;28;20092;-76
2022/07/17 06:23:20;;;;;;;1.17;0.40;;;;;;;27.14;33.63;101069.56;5067989;28;20274;-76
2022/07/17 06:25:45;;;;;;;1.95;0.32;;;;;;;27.13;33.44;101065.28;5068056;28;20420;-75
2022/07/17 06:28:11;;;;;;;5.00;0.40;;;;;;;27.02;33.83;101060.78;5068048;28;20444;-75
2022/07/17 06:30:37;;;;;;;1.52;0.30;;;;;;;27.01;33.64;101069.84;5068063;28;20036;-75
2022/07/17 06:33:02;;;;;;;2.05;0.38;;;;;;;27.08;33.64;101063.31;5067980;28;20024;-75
2022/07/17 06:35:30;;;;;;;1.27;0.40;;;;;;;27.05;33.64;101073.69;5067924;28;20036;-75
2022/07/17 06:37:56;;;;;;;0.82;0.30;;;;;;;27.07;33.67;101071.56;5067991;28;20371;-75
2022/07/17 06:40:22;;;;;;;0.88;0.30;;;;;;;27.11;33.65;101067.38;5067855;28;20115;-75
2022/07/17 06:42:47;;;;;;;0.55;0.28;;;;;;;27.12;33.49;101070.88;5067798;28;20140;-75
2022/07/17 06:45:13;;;;;;;3.97;0.60;;;;;;;27.09;33.37;101066.81;5067782;28;20035;-75
2022/07/17 06:47:38;;;;;;;1.83;0.30;;;;;;;27.13;33.52;101064.47;5068098;28;20055;-75
2022/07/17 06:50:05;;;;;;;1.98;0.30;;;;;;;27.10;33.14;101069.25;5066383;28;20036;-76
2022/07/17 06:52:30;;;;;;;2.05;0.25;;;;;;;27.10;33.34;101073.78;5068036;28;20024;-75
2022/07/17 06:54:55;;;;;;;3.22;0.60;;;;;;;27.01;33.07;101072.53;5067864;28;20111;-75
2022/07/17 06:57:21;;;;;;;1.75;0.30;;;;;;;26.99;33.30;101069.28;5067536;28;20168;-75
2022/07/17 06:59:46;;;;;;;0.70;0.30;;;;;;;27.00;33.25;101071.72;5067722;28;20472;-75
2022/07/17 07:02:12;;;;;;;1.30;0.20;;;;;;;26.99;32.93;101066.59;5067693;28;20028;-74
2022/07/17 07:04:37;;;;;;;1.13;0.30;;;;;;;26.98;33.12;101079.16;5067648;28;20628;-74
2022/07/17 07:07:03;;;;;;;1.13;0.50;;;;;;;26.96;33.47;101078.59;5067299;28;20052;-74
2022/07/17 07:09:28;;;;;;;2.40;0.50;;;;;;;26.94;33.30;101075.31;5067578;28;20029;-74
2022/07/17 07:11:54;;;;;;;2.17;0.30;;;;;;;26.95;33.33;101086.81;5067792;28;20459;-74
2022/07/17 07:14:19;;;;;;;3.10;0.40;;;;;;;26.98;33.25;101081.84;5067599;28;20460;-74
2022/07/17 07:16:44;;;;;;;2.05;0.43;;;;;;;26.97;33.19;101079.41;5067361;28;20029;-74
2022/07/17 07:19:10;;;;;;;2.63;0.30;;;;;;;26.94;33.02;101088.69;5067922;28;20086;-72
2022/07/17 07:21:36;;;;;;;2.25;0.30;;;;;;;26.95;33.49;101079.59;5067388;28;20511;-75
2022/07/17 07:24:01;;;;;;;1.08;0.30;;;;;;;27.02;33.38;101085.66;5067505;28;20035;-74
2022/07/17 07:26:27;;;;;;;2.33;0.38;;;;;;;26.97;33.43;101085.56;5067591;28;20025;-74
2022/07/17 07:28:53;;;;;;;1.20;0.40;;;;;;;26.97;33.75;101093.59;5067351;28;20620;-74
2022/07/17 07:31:18;;;;;;;0.57;0.30;;;;;;;26.93;33.71;101087.09;5067289;28;20024;-74
2022/07/17 07:33:45;;;;;;;4.18;0.30;;;;;;;26.97;33.75;101090.09;5070573;28;20283;-75
2022/07/17 07:36:11;;;;;;;3.00;0.32;;;;;;;26.98;33.48;101091.72;5071509;28;20437;-74
2022/07/17 07:38:36;;;;;;;2.88;0.30;;;;;;;26.95;33.69;101092.16;5071456;28;20167;-74
2022/07/17 07:41:02;;;;;;;0.70;0.20;;;;;;;27.07;33.91;101101.81;5071238;28;20029;-74
2022/07/17 07:43:27;;;;;;;1.90;0.30;;;;;;;27.19;33.69;101104.44;5071597;28;20464;-75
2022/07/17 07:45:53;;;;;;;1.13;0.40;;;;;;;27.27;33.77;101096.03;5070873;28;20063;-71
2022/07/17 07:48:18;;;;;;;3.47;0.40;;;;;;;27.33;33.31;101103.13;5071141;28;20472;-75
2022/07/17 07:50:44;;;;;;;0.68;0.20;;;;;;;27.39;33.39;101104.03;5070716;28;20102;-73
2022/07/17 07:53:09;;;;;;;3.00;0.28;;;;;;;27.44;33.41;101096.06;5071366;28;20060;-76
2022/07/17 07:55:35;;;;;;;1.50;0.40;;;;;;;27.50;33.35;101111.16;5071349;28;20454;-73
2022/07/17 07:58:12;;;;;;;5.22;0.45;;;;;;;27.56;34.12;101110.19;5070684;28;20575;-73
2022/07/17 08:00:40;;;;;;;1.13;0.30;;;;;;;27.63;33.88;101104.72;5071103;28;20031;-72
2022/07/17 08:03:06;;;;;;;0.93;0.30;;;;;;;27.67;33.92;101103.19;5070889;28;20122;-72
2022/07/17 08:05:32;;;;;;;3.50;0.30;;;;;;;27.69;33.94;101115.28;5071115;28;20033;-73
2022/07/17 08:07:58;;;;;;;5.18;0.50;;;;;;;27.71;34.45;101102.47;5070897;28;20025;-73
2022/07/17 08:10:24;;;;;;;0.85;0.32;;;;;;;27.74;34.44;101101.16;5070976;28;20471;-72
2022/07/17 08:12:49;;;;;;;3.20;0.40;;;;;;;27.79;34.62;101116.50;5070653;28;20488;-72
2022/07/17 08:15:17;;;;;;;2.00;0.30;;;;;;;27.84;34.72;101106.69;5070710;28;20055;-72
2022/07/17 08:17:43;;;;;;;2.13;0.65;;;;;;;27.86;34.97;101112.63;5070311;28;20024;-71
2022/07/17 08:20:09;;;;;;;1.13;0.40;;;;;;;27.90;34.85;101116.41;5070686;28;20158;-73
2022/07/17 08:22:35;;;;;;;5.90;0.40;;;;;;;27.93;34.93;101110.56;5070677;28;20476;-74
2022/07/17 08:25:00;;;;;;;1.45;0.30;;;;;;;27.95;34.84;101108.44;5070551;28;20027;-74
2022/07/17 08:27:26;;;;;;;2.00;0.68;;;;;;;27.97;35.10;101106.34;5070546;28;20060;-72
2022/07/17 08:29:51;;;;;;;1.63;0.30;;;;;;;27.89;33.53;101113.97;5070827;28;20028;-72
2022/07/17 08:32:17;;;;;;;1.95;0.40;;;;;;;27.77;33.34;101135.47;5070435;28;20103;-71
2022/07/17 08:34:42;;;;;;;1.40;0.30;;;;;;;27.79;33.33;101124.53;5071175;28;20031;-72
2022/07/17 08:37:07;;;;;;;0.90;0.30;;;;;;;27.85;33.36;101121.69;5070922;28;20403;-72
2022/07/17 08:39:33;;;;;;;1.95;0.30;;;;;;;27.90;33.34;101121.75;5069849;28;20016;-76
2022/07/17 08:41:58;;;;;;;1.60;0.40;;;;;;;27.94;33.71;101128.25;5067733;28;20044;-77
2022/07/17 08:44:24;;;;;;;1.52;0.30;;;;;;;27.97;33.97;101121.59;5068543;28;20555;-76
2022/07/17 08:46:50;;;;;;;0.60;0.20;;;;;;;28.00;34.39;101119.25;5070449;28;20044;-72
2022/07/17 08:49:21;;;;;;;2.05;0.38;;;;;;;28.00;34.45;101121.91;5070290;28;20480;-72
2022/07/17 08:51:47;;;;;;;0.93;0.40;;;;;;;28.02;34.35;101133.22;5070493;28;20484;-73
2022/07/17 08:54:14;;;;;;;2.72;0.30;;;;;;;28.03;34.39;101115.28;5069676;28;20086;-75
2022/07/17 08:56:39;;;;;;;0.90;0.30;;;;;;;28.03;34.39;101132.16;5070412;28;20453;-73
2022/07/17 08:59:04;;;;;;;0.90;0.25;;;;;;;28.04;33.99;101123.06;5051224;28;20044;-74
2022/07/17 09:01:30;;;;;;;0.80;0.20;;;;;;;28.05;34.12;101129.22;5069995;28;20031;-73
2022/07/17 09:04:05;;;;;;;1.65;0.28;;;;;;;28.06;33.75;101120.94;5069224;28;20020;-73
2022/07/17 09:06:30;;;;;;;;;;;;;;;28.02;34.14;101122.50;5069825;28;20437;-74
2022/07/17 09:09:14;;;;;;;0.82;0.20;;;;;;;28.03;33.87;101129.47;5070177;28;19963;-74
2022/07/17 09:11:43;;;;;;;0.85;0.30;;;;;;;28.08;33.70;101124.19;5070120;28;20514;-74
2022/07/17 09:14:08;;;;;;;1.27;0.30;;;;;;;28.11;34.09;101128.25;5067133;28;20167;-74
2022/07/17 09:16:36;;;;;;;1.08;0.20;;;;;;;28.14;33.69;101151.06;5068814;28;20111;-74
2022/07/17 09:19:01;;;;;;;3.53;0.40;;;;;;;28.13;33.55;101133.38;5067111;28;20091;-71
2022/07/17 09:21:29;;;;;;;2.25;0.30;;;;;;;28.16;33.34;101136.38;5069535;28;20500;-72
2022/07/17 09:24:02;;;;;;;3.08;0.52;;;;;;;28.16;32.57;101127.53;5069585;28;20119;-73
2022/07/17 09:26:28;;;;;;;4.78;0.35;;;;;;;28.18;33.03;101138.81;5069302;28;20032;-73
2022/07/17 09:28:55;;;;;;;2.33;0.30;;;;;;;28.19;32.65;101143.91;5065466;28;20044;-73
2022/07/17 09:31:29;;;;;;;2.22;0.50;;;;;;;28.21;32.44;101125.78;5069409;28;20069;-72
2022/07/17 09:33:56;;;;;;;2.67;0.40;;;;;;;28.22;32.71;101129.25;5069646;28;20024;-71
2022/07/17 09:36:22;;;;;;;1.10;0.30;;;;;;;28.24;32.76;101127.97;5069728;28;20028;-74
2022/07/17 09:38:52;;;;;;;1.00;0.30;;;;;;;28.27;33.16;101129.34;5068267;28;20032;-72
2022/07/17 09:41:20;;;;;;;3.00;0.68;;;;;;;28.27;33.26;101132.81;5069162;28;20029;-74
2022/07/17 09:43:54;;;;;;;1.77;0.68;;;;;;;28.28;32.99;101131.78;5068459;28;20020;-74
2022/07/17 09:46:24;;;;;;;2.15;0.30;;;;;;;28.27;32.86;101132.81;5067685;28;20037;-75
2022/07/17 09:49:09;;;;;;;1.88;0.40;;;;;;;28.28;32.88;101128.28;5069220;28;20106;-76
2022/07/17 09:51:39;;;;;;;1.30;0.40;;;;;;;28.29;32.81;101124.53;5069556;28;20449;-72
2022/07/17 09:54:07;;;;;;;6.82;0.40;;;;;;;28.31;32.76;101133.16;5069236;28;20024;-74
2022/07/17 09:56:35;;;;;;;2.55;0.35;;;;;;;28.32;32.98;101124.06;5066700;28;20139;-71
2022/07/17 09:59:04;;;;;;;4.00;0.30;;;;;;;28.34;33.37;101114.72;5067835;28;20044;-72
2022/07/17 10:01:30;;;;;;;1.25;0.40;;;;;;;28.36;33.15;101123.28;5069008;28;20035;-73
2022/07/17 10:03:56;;;;;;;2.10;0.22;;;;;;;28.39;33.00;101124.66;5068721;28;20037;-74
2022/07/17 10:06:23;;;;;;;1.60;0.30;;;;;;;28.38;32.92;101115.00;5066748;28;20024;-73
2022/07/17 10:08:51;;;;;;;2.60;0.40;;;;;;;28.39;33.44;101114.75;5068586;28;20058;-72
2022/07/17 10:11:20;;;;;;;1.58;0.30;;;;;;;28.42;32.93;101116.13;5069051;28;20415;-74
2022/07/17 10:13:47;;;;;;;1.60;0.47;;;;;;;28.44;32.91;101107.84;5067636;28;20036;-72
2022/07/17 10:16:14;;;;;;;1.13;0.30;;;;;;;28.46;33.49;101113.78;5068673;28;20085;-71
2022/07/17 10:18:44;;;;;;;1.00;0.32;;;;;;;28.47;32.84;101110.84;5068207;28;20119;-73
2022/07/17 10:21:15;;;;;;;1.38;0.35;;;;;;;28.48;33.21;101112.47;5068792;28;20120;-73
2022/07/17 10:23:42;;;;;;;2.58;0.43;;;;;;;28.51;32.91;101111.16;5067760;28;20115;-72
2022/07/17 10:26:08;;;;;;;1.38;0.40;;;;;;;28.51;33.33;101106.63;5066781;28;20372;-73
2022/07/17 10:28:42;;;;;;;3.63;0.40;;;;;;;28.55;33.08;101115.78;5064503;28;20052;-75
2022/07/17 10:31:08;;;;;;;4.65;0.40;;;;;;;28.53;33.28;101104.50;5065301;28;20032;-72
2022/07/17 10:33:34;;;;;;;0.80;0.30;;;;;;;28.54;33.02;101114.16;5067219;28;20039;-73
2022/07/17 10:35:59;;;;;;;0.98;0.25;;;;;;;28.53;33.31;101109.84;5067209;28;20036;-72
2022/07/17 10:38:27;;;;;;;0.93;0.30;;;;;;;28.54;33.13;101105.31;5068258;28;20557;-71
2022/07/17 10:41:02;;;;;;;2.72;0.40;;;;;;;28.53;33.62;101115.22;5062804;28;20035;-73
2022/07/17 10:43:42;;;;;;;1.25;0.40;;;;;;;28.54;33.11;101106.13;5064896;28;20504;-74
2022/07/17 10:46:07;;;;;;;1.52;0.60;;;;;;;28.56;33.07;101103.19;5048150;28;20381;-74
2022/07/17 10:48:33;;;;;;;1.63;0.50;;;;;;;28.58;32.99;101101.09;5048092;28;20031;-72
2022/07/17 10:50:58;;;;;;;0.60;0.30;;;;;;;28.61;32.88;101089.84;5062404;28;20031;-74
2022/07/17 10:53:35;;;;;;;1.35;0.57;;;;;;;28.63;32.72;101091.22;5068374;28;20119;-75
2022/07/17 10:56:06;;;;;;;2.20;0.40;;;;;;;28.67;32.71;101088.88;5067927;28;20214;-73
2022/07/17 10:58:33;;;;;;;0.80;0.40;;;;;;;28.68;33.16;101083.25;5064175;28;20048;-73
2022/07/17 11:01:14;;;;;;;1.38;0.40;;;;;;;28.70;32.91;101086.50;5064587;28;20028;-72
2022/07/17 11:03:42;;;;;;;2.90;0.52;;;;;;;28.73;33.33;101083.31;5065549;28;20036;-72
2022/07/17 11:06:14;;;;;;;0.40;0.30;;;;;;;28.71;33.16;101088.13;5067712;28;20017;-72
2022/07/17 11:08:46;;;;;;;1.85;0.50;;;;;;;28.71;32.86;101080.09;5067962;28;20358;-72
2022/07/17 11:11:12;;;;;;;0.90;0.40;;;;;;;28.71;32.68;101080.09;5065646;28;20046;-73
2022/07/17 11:13:37;;;;;;;3.78;0.50;;;;;;;28.76;33.18;101081.19;5067830;28;20024;-72
2022/07/17 11:16:03;;;;;;;2.35;0.30;;;;;;;28.79;32.98;101075.34;5066766;28;20500;-73
2022/07/17 11:18:29;;;;;;;2.03;0.40;;;;;;;28.82;32.38;101086.41;5067865;28;20024;-73
2022/07/17 11:20:59;;;;;;;0.80;0.40;;;;;;;28.82;32.60;101075.69;5064854;28;20032;-73